sensor_id;sensor_type;location;lat;lon;timestamp;P1;durP1;ratioP1;P2;durP2;ratioP2
74656;SDS011;63185;45.642;13.764;2022-12-07T00:01:09;10.88;;;6.90;;
74656;SDS011;63185;45.642;13.764;2022-12-07T00:03:43;10.18;;;6.20;;
74656;SDS011;63185;45.642;13.764;2022-12-07T00:06:11;8.65;;;5.45;;
74656;SDS011;63185;45.642;13.764;2022-12-07T00:08:39;10.82;;;5.82;;
74656;SDS011;63185;45.642;13.764;2022-12-07T00:11:06;7.97;;;5.13;;
74656;SDS011;63185;45.642;13.764;2022-12-07T00:13:36;10.65;;;4.93;;
74656;SDS011;63185;45.642;13.764;2022-12-07T00:16:03;8.55;;;3.95;;
74656;SDS011;63185;45.642;13.764;2022-12-07T00:18:34;9.25;;;3.85;;
74656;SDS011;63185;45.642;13.764;2022-12-07T00:21:01;7.85;;;3.75;;
74656;SDS011;63185;45.642;13.764;2022-12-07T00:23:28;7.03;;;4.32;;
74656;SDS011;63185;45.642;13.764;2022-12-07T00:25:54;8.15;;;4.35;;
74656;SDS011;63185;45.642;13.764;2022-12-07T00:28:20;8.15;;;4.13;;
74656;SDS011;63185;45.642;13.764;2022-12-07T00:30:46;6.65;;;4.10;;
74656;SDS011;63185;45.642;13.764;2022-12-07T00:33:11;7.50;;;4.50;;
74656;SDS011;63185;45.642;13.764;2022-12-07T00:35:37;6.82;;;4.68;;
74656;SDS011;63185;45.642;13.764;2022-12-07T00:38:03;7.53;;;4.70;;
74656;SDS011;63185;45.642;13.764;2022-12-07T00:40:28;9.60;;;5.10;;
74656;SDS011;63185;45.642;13.764;2022-12-07T00:42:54;7.10;;;4.60;;
74656;SDS011;63185;45.642;13.764;2022-12-07T00:45:19;9.82;;;4.88;;
74656;SDS011;63185;45.642;13.764;2022-12-07T00:47:45;9.15;;;4.85;;
74656;SDS011;63185;45.642;13.764;2022-12-07T00:50:11;8.25;;;4.97;;
74656;SDS011;63185;45.642;13.764;2022-12-07T00:52:36;8.55;;;5.32;;
74656;SDS011;63185;45.642;13.764;2022-12-07T00:55:02;9.50;;;6.18;;
74656;SDS011;63185;45.642;13.764;2022-12-07T00:57:29;9.05;;;5.90;;
74656;SDS011;63185;45.642;13.764;2022-12-07T00:59:55;11.90;;;6.50;;
74656;SDS011;63185;45.642;13.764;2022-12-07T01:02:22;10.40;;;6.00;;
74656;SDS011;63185;45.642;13.764;2022-12-07T01:04:48;11.25;;;6.10;;
74656;SDS011;63185;45.642;13.764;2022-12-07T01:07:14;10.13;;;5.88;;
74656;SDS011;63185;45.642;13.764;2022-12-07T01:09:40;9.98;;;5.95;;
74656;SDS011;63185;45.642;13.764;2022-12-07T01:12:05;16.25;;;6.03;;
74656;SDS011;63185;45.642;13.764;2022-12-07T01:14:31;10.23;;;6.22;;
74656;SDS011;63185;45.642;13.764;2022-12-07T01:16:57;12.30;;;6.47;;
74656;SDS011;63185;45.642;13.764;2022-12-07T01:19:23;13.50;;;6.47;;
74656;SDS011;63185;45.642;13.764;2022-12-07T01:21:48;9.85;;;6.18;;
74656;SDS011;63185;45.642;13.764;2022-12-07T01:24:14;12.13;;;6.75;;
74656;SDS011;63185;45.642;13.764;2022-12-07T01:26:40;8.85;;;6.38;;
74656;SDS011;63185;45.642;13.764;2022-12-07T01:29:06;10.98;;;6.72;;
74656;SDS011;63185;45.642;13.764;2022-12-07T01:31:31;12.55;;;6.75;;
74656;SDS011;63185;45.642;13.764;2022-12-07T01:33:58;10.00;;;6.50;;
74656;SDS011;63185;45.642;13.764;2022-12-07T01:36:28;11.82;;;7.25;;
74656;SDS011;63185;45.642;13.764;2022-12-07T01:38:59;12.93;;;6.50;;
74656;SDS011;63185;45.642;13.764;2022-12-07T01:41:28;11.65;;;6.80;;
74656;SDS011;63185;45.642;13.764;2022-12-07T01:44:09;10.57;;;6.25;;
74656;SDS011;63185;45.642;13.764;2022-12-07T01:49:01;13.13;;;6.40;;
74656;SDS011;63185;45.642;13.764;2022-12-07T01:51:28;11.93;;;6.28;;
74656;SDS011;63185;45.642;13.764;2022-12-07T01:53:54;10.27;;;6.70;;
74656;SDS011;63185;45.642;13.764;2022-12-07T01:56:22;10.02;;;6.07;;
74656;SDS011;63185;45.642;13.764;2022-12-07T01:58:50;12.23;;;6.28;;
74656;SDS011;63185;45.642;13.764;2022-12-07T02:01:17;8.90;;;6.07;;
74656;SDS011;63185;45.642;13.764;2022-12-07T02:03:43;11.38;;;6.22;;
74656;SDS011;63185;45.642;13.764;2022-12-07T02:06:10;11.90;;;6.40;;
74656;SDS011;63185;45.642;13.764;2022-12-07T02:08:41;9.45;;;5.95;;
74656;SDS011;63185;45.642;13.764;2022-12-07T02:11:07;10.43;;;5.85;;
74656;SDS011;63185;45.642;13.764;2022-12-07T02:13:35;10.13;;;6.13;;
74656;SDS011;63185;45.642;13.764;2022-12-07T02:16:14;10.70;;;5.60;;
74656;SDS011;63185;45.642;13.764;2022-12-07T02:30:09;10.18;;;5.88;;
74656;SDS011;63185;45.642;13.764;2022-12-07T02:35:21;10.80;;;6.00;;
74656;SDS011;63185;45.642;13.764;2022-12-07T02:40:40;10.35;;;5.88;;
74656;SDS011;63185;45.642;13.764;2022-12-07T02:43:23;7.78;;;5.15;;
74656;SDS011;63185;45.642;13.764;2022-12-07T02:45:55;8.50;;;5.13;;
74656;SDS011;63185;45.642;13.764;2022-12-07T02:48:25;9.23;;;5.03;;
74656;SDS011;63185;45.642;13.764;2022-12-07T02:50:52;7.32;;;4.90;;
74656;SDS011;63185;45.642;13.764;2022-12-07T03:11:39;7.40;;;4.95;;
74656;SDS011;63185;45.642;13.764;2022-12-07T03:14:25;8.13;;;5.15;;
74656;SDS011;63185;45.642;13.764;2022-12-07T03:17:00;8.13;;;4.93;;
74656;SDS011;63185;45.642;13.764;2022-12-07T03:19:39;7.53;;;4.70;;
74656;SDS011;63185;45.642;13.764;2022-12-07T03:22:08;7.20;;;4.18;;
74656;SDS011;63185;45.642;13.764;2022-12-07T03:24:39;8.18;;;4.70;;
74656;SDS011;63185;45.642;13.764;2022-12-07T03:27:10;7.60;;;4.80;;
74656;SDS011;63185;45.642;13.764;2022-12-07T03:29:37;6.88;;;4.57;;
74656;SDS011;63185;45.642;13.764;2022-12-07T03:32:11;6.75;;;4.18;;
74656;SDS011;63185;45.642;13.764;2022-12-07T03:37:29;7.93;;;4.18;;
74656;SDS011;63185;45.642;13.764;2022-12-07T03:43:04;7.25;;;4.22;;
74656;SDS011;63185;45.642;13.764;2022-12-07T03:45:38;6.80;;;4.10;;
74656;SDS011;63185;45.642;13.764;2022-12-07T03:48:18;8.80;;;4.43;;
74656;SDS011;63185;45.642;13.764;2022-12-07T03:50:52;7.20;;;4.22;;
74656;SDS011;63185;45.642;13.764;2022-12-07T03:53:30;11.38;;;4.75;;
74656;SDS011;63185;45.642;13.764;2022-12-07T03:56:02;7.22;;;4.40;;
74656;SDS011;63185;45.642;13.764;2022-12-07T03:58:28;8.32;;;5.30;;
74656;SDS011;63185;45.642;13.764;2022-12-07T04:00:55;9.60;;;5.22;;
74656;SDS011;63185;45.642;13.764;2022-12-07T04:03:21;8.68;;;5.03;;
74656;SDS011;63185;45.642;13.764;2022-12-07T04:05:46;7.88;;;4.75;;
74656;SDS011;63185;45.642;13.764;2022-12-07T04:08:12;8.55;;;4.38;;
74656;SDS011;63185;45.642;13.764;2022-12-07T04:10:38;8.48;;;5.03;;
74656;SDS011;63185;45.642;13.764;2022-12-07T04:13:04;9.68;;;5.00;;
74656;SDS011;63185;45.642;13.764;2022-12-07T04:15:30;10.38;;;5.63;;
74656;SDS011;63185;45.642;13.764;2022-12-07T04:17:55;10.55;;;5.88;;
74656;SDS011;63185;45.642;13.764;2022-12-07T04:20:21;9.27;;;5.63;;
74656;SDS011;63185;45.642;13.764;2022-12-07T04:22:47;10.43;;;5.20;;
74656;SDS011;63185;45.642;13.764;2022-12-07T04:25:13;9.80;;;5.32;;
74656;SDS011;63185;45.642;13.764;2022-12-07T04:27:39;8.75;;;4.97;;
74656;SDS011;63185;45.642;13.764;2022-12-07T04:30:04;8.07;;;4.85;;
74656;SDS011;63185;45.642;13.764;2022-12-07T04:32:31;7.88;;;5.15;;
74656;SDS011;63185;45.642;13.764;2022-12-07T04:34:56;11.27;;;5.38;;
74656;SDS011;63185;45.642;13.764;2022-12-07T04:37:22;10.02;;;5.10;;
74656;SDS011;63185;45.642;13.764;2022-12-07T04:39:48;8.88;;;4.80;;
74656;SDS011;63185;45.642;13.764;2022-12-07T04:42:14;9.73;;;5.05;;
74656;SDS011;63185;45.642;13.764;2022-12-07T04:44:40;6.68;;;4.45;;
74656;SDS011;63185;45.642;13.764;2022-12-07T04:47:05;9.13;;;5.15;;
74656;SDS011;63185;45.642;13.764;2022-12-07T04:49:31;7.07;;;4.38;;
74656;SDS011;63185;45.642;13.764;2022-12-07T04:51:57;8.30;;;4.75;;
74656;SDS011;63185;45.642;13.764;2022-12-07T04:54:23;9.25;;;4.88;;
74656;SDS011;63185;45.642;13.764;2022-12-07T04:56:48;7.60;;;4.93;;
74656;SDS011;63185;45.642;13.764;2022-12-07T04:59:15;9.32;;;5.10;;
74656;SDS011;63185;45.642;13.764;2022-12-07T05:01:41;9.18;;;5.10;;
74656;SDS011;63185;45.642;13.764;2022-12-07T05:04:07;8.77;;;4.63;;
74656;SDS011;63185;45.642;13.764;2022-12-07T05:06:33;8.02;;;5.13;;
74656;SDS011;63185;45.642;13.764;2022-12-07T05:08:59;10.43;;;5.40;;
74656;SDS011;63185;45.642;13.764;2022-12-07T05:11:25;8.13;;;5.13;;
74656;SDS011;63185;45.642;13.764;2022-12-07T05:14:04;8.80;;;5.10;;
74656;SDS011;63185;45.642;13.764;2022-12-07T05:16:32;12.45;;;5.82;;
74656;SDS011;63185;45.642;13.764;2022-12-07T05:18:59;8.57;;;4.90;;
74656;SDS011;63185;45.642;13.764;2022-12-07T05:21:24;8.52;;;4.97;;
74656;SDS011;63185;45.642;13.764;2022-12-07T05:23:50;7.68;;;5.05;;
74656;SDS011;63185;45.642;13.764;2022-12-07T05:26:17;7.60;;;5.15;;
74656;SDS011;63185;45.642;13.764;2022-12-07T05:28:43;10.90;;;4.80;;
74656;SDS011;63185;45.642;13.764;2022-12-07T05:31:08;6.93;;;4.65;;
74656;SDS011;63185;45.642;13.764;2022-12-07T05:33:34;7.60;;;4.82;;
74656;SDS011;63185;45.642;13.764;2022-12-07T05:36:00;9.77;;;5.70;;
74656;SDS011;63185;45.642;13.764;2022-12-07T05:38:30;8.55;;;5.55;;
74656;SDS011;63185;45.642;13.764;2022-12-07T05:40:59;9.07;;;5.53;;
74656;SDS011;63185;45.642;13.764;2022-12-07T05:43:29;9.10;;;5.55;;
74656;SDS011;63185;45.642;13.764;2022-12-07T05:45:55;9.75;;;5.47;;
74656;SDS011;63185;45.642;13.764;2022-12-07T05:48:21;8.70;;;5.78;;
74656;SDS011;63185;45.642;13.764;2022-12-07T05:50:47;8.57;;;5.47;;
74656;SDS011;63185;45.642;13.764;2022-12-07T05:53:14;8.98;;;5.75;;
74656;SDS011;63185;45.642;13.764;2022-12-07T05:55:40;7.40;;;4.63;;
74656;SDS011;63185;45.642;13.764;2022-12-07T05:58:05;8.88;;;5.43;;
74656;SDS011;63185;45.642;13.764;2022-12-07T06:00:49;11.43;;;5.85;;
74656;SDS011;63185;45.642;13.764;2022-12-07T06:03:15;9.32;;;5.20;;
74656;SDS011;63185;45.642;13.764;2022-12-07T06:05:41;8.60;;;4.88;;
74656;SDS011;63185;45.642;13.764;2022-12-07T06:08:07;7.55;;;5.20;;
74656;SDS011;63185;45.642;13.764;2022-12-07T06:10:33;7.90;;;5.10;;
74656;SDS011;63185;45.642;13.764;2022-12-07T06:12:58;9.90;;;5.55;;
74656;SDS011;63185;45.642;13.764;2022-12-07T06:15:24;8.32;;;5.20;;
74656;SDS011;63185;45.642;13.764;2022-12-07T06:17:50;8.85;;;5.53;;
74656;SDS011;63185;45.642;13.764;2022-12-07T06:20:16;8.68;;;5.07;;
74656;SDS011;63185;45.642;13.764;2022-12-07T06:22:41;9.55;;;5.32;;
74656;SDS011;63185;45.642;13.764;2022-12-07T06:25:07;9.68;;;5.43;;
74656;SDS011;63185;45.642;13.764;2022-12-07T06:27:33;8.15;;;5.45;;
74656;SDS011;63185;45.642;13.764;2022-12-07T06:30:00;11.63;;;5.40;;
74656;SDS011;63185;45.642;13.764;2022-12-07T06:32:31;8.05;;;4.85;;
74656;SDS011;63185;45.642;13.764;2022-12-07T06:34:57;7.95;;;5.15;;
74656;SDS011;63185;45.642;13.764;2022-12-07T06:37:24;7.25;;;4.63;;
74656;SDS011;63185;45.642;13.764;2022-12-07T06:39:49;10.05;;;5.65;;
74656;SDS011;63185;45.642;13.764;2022-12-07T06:42:15;8.75;;;5.47;;
74656;SDS011;63185;45.642;13.764;2022-12-07T06:44:41;9.40;;;5.43;;
74656;SDS011;63185;45.642;13.764;2022-12-07T06:47:07;9.35;;;5.80;;
74656;SDS011;63185;45.642;13.764;2022-12-07T06:49:34;8.85;;;4.80;;
74656;SDS011;63185;45.642;13.764;2022-12-07T06:52:00;10.05;;;5.40;;
74656;SDS011;63185;45.642;13.764;2022-12-07T06:54:25;9.60;;;5.80;;
74656;SDS011;63185;45.642;13.764;2022-12-07T06:56:51;8.55;;;4.97;;
74656;SDS011;63185;45.642;13.764;2022-12-07T06:59:17;8.73;;;5.40;;
74656;SDS011;63185;45.642;13.764;2022-12-07T07:01:42;10.05;;;5.63;;
74656;SDS011;63185;45.642;13.764;2022-12-07T07:04:08;8.65;;;5.60;;
74656;SDS011;63185;45.642;13.764;2022-12-07T07:06:34;9.68;;;5.68;;
74656;SDS011;63185;45.642;13.764;2022-12-07T07:08:59;8.57;;;5.38;;
74656;SDS011;63185;45.642;13.764;2022-12-07T07:11:25;11.60;;;5.95;;
74656;SDS011;63185;45.642;13.764;2022-12-07T07:13:51;11.60;;;5.78;;
74656;SDS011;63185;45.642;13.764;2022-12-07T07:16:16;8.88;;;6.00;;
74656;SDS011;63185;45.642;13.764;2022-12-07T07:18:42;10.30;;;5.95;;
74656;SDS011;63185;45.642;13.764;2022-12-07T07:21:08;10.48;;;6.13;;
74656;SDS011;63185;45.642;13.764;2022-12-07T07:23:34;11.13;;;6.32;;
74656;SDS011;63185;45.642;13.764;2022-12-07T07:26:00;12.90;;;7.18;;
74656;SDS011;63185;45.642;13.764;2022-12-07T07:28:25;13.40;;;8.02;;
74656;SDS011;63185;45.642;13.764;2022-12-07T07:30:51;14.02;;;8.00;;
74656;SDS011;63185;45.642;13.764;2022-12-07T07:33:17;13.48;;;6.93;;
74656;SDS011;63185;45.642;13.764;2022-12-07T07:35:42;13.02;;;6.10;;
74656;SDS011;63185;45.642;13.764;2022-12-07T07:38:08;10.07;;;5.63;;
74656;SDS011;63185;45.642;13.764;2022-12-07T07:40:34;10.32;;;5.45;;
74656;SDS011;63185;45.642;13.764;2022-12-07T07:43:00;8.20;;;5.05;;
74656;SDS011;63185;45.642;13.764;2022-12-07T07:45:26;9.00;;;5.28;;
74656;SDS011;63185;45.642;13.764;2022-12-07T07:47:52;7.80;;;4.70;;
74656;SDS011;63185;45.642;13.764;2022-12-07T07:50:18;10.48;;;5.35;;
74656;SDS011;63185;45.642;13.764;2022-12-07T07:52:44;7.38;;;4.57;;
74656;SDS011;63185;45.642;13.764;2022-12-07T07:55:10;6.88;;;4.68;;
74656;SDS011;63185;45.642;13.764;2022-12-07T07:57:37;9.55;;;5.13;;
74656;SDS011;63185;45.642;13.764;2022-12-07T08:00:04;7.07;;;4.32;;
74656;SDS011;63185;45.642;13.764;2022-12-07T08:02:32;18.50;;;5.28;;
74656;SDS011;63185;45.642;13.764;2022-12-07T08:04:57;8.82;;;4.82;;
74656;SDS011;63185;45.642;13.764;2022-12-07T08:07:23;7.32;;;4.68;;
74656;SDS011;63185;45.642;13.764;2022-12-07T08:09:49;8.95;;;4.43;;
74656;SDS011;63185;45.642;13.764;2022-12-07T08:12:15;9.73;;;4.40;;
74656;SDS011;63185;45.642;13.764;2022-12-07T08:14:43;8.90;;;4.80;;
74656;SDS011;63185;45.642;13.764;2022-12-07T08:17:09;9.85;;;4.60;;
74656;SDS011;63185;45.642;13.764;2022-12-07T08:19:34;9.77;;;4.88;;
74656;SDS011;63185;45.642;13.764;2022-12-07T08:22:00;9.60;;;4.60;;
74656;SDS011;63185;45.642;13.764;2022-12-07T08:24:26;12.10;;;7.50;;
74656;SDS011;63185;45.642;13.764;2022-12-07T08:26:52;15.00;;;6.90;;
74656;SDS011;63185;45.642;13.764;2022-12-07T08:29:18;12.57;;;6.47;;
74656;SDS011;63185;45.642;13.764;2022-12-07T08:31:44;20.73;;;11.18;;
74656;SDS011;63185;45.642;13.764;2022-12-07T08:34:10;12.52;;;7.30;;
74656;SDS011;63185;45.642;13.764;2022-12-07T08:36:36;12.73;;;5.43;;
74656;SDS011;63185;45.642;13.764;2022-12-07T08:39:02;7.07;;;4.22;;
74656;SDS011;63185;45.642;13.764;2022-12-07T08:41:28;5.75;;;3.83;;
74656;SDS011;63185;45.642;13.764;2022-12-07T08:43:54;7.78;;;3.80;;
74656;SDS011;63185;45.642;13.764;2022-12-07T08:46:21;8.43;;;3.90;;
74656;SDS011;63185;45.642;13.764;2022-12-07T08:48:57;9.52;;;4.57;;
74656;SDS011;63185;45.642;13.764;2022-12-07T08:51:28;8.38;;;4.13;;
74656;SDS011;63185;45.642;13.764;2022-12-07T08:53:54;8.93;;;4.40;;
74656;SDS011;63185;45.642;13.764;2022-12-07T08:56:21;9.85;;;4.13;;
74656;SDS011;63185;45.642;13.764;2022-12-07T08:58:47;6.03;;;3.65;;
74656;SDS011;63185;45.642;13.764;2022-12-07T09:01:13;7.85;;;3.35;;
74656;SDS011;63185;45.642;13.764;2022-12-07T09:03:39;8.85;;;4.00;;
74656;SDS011;63185;45.642;13.764;2022-12-07T09:06:05;6.70;;;3.35;;
74656;SDS011;63185;45.642;13.764;2022-12-07T09:08:36;10.32;;;4.82;;
74656;SDS011;63185;45.642;13.764;2022-12-07T09:11:06;9.38;;;5.38;;
74656;SDS011;63185;45.642;13.764;2022-12-07T09:13:32;8.50;;;6.15;;
74656;SDS011;63185;45.642;13.764;2022-12-07T09:15:58;7.63;;;4.90;;
74656;SDS011;63185;45.642;13.764;2022-12-07T09:18:23;7.82;;;4.00;;
74656;SDS011;63185;45.642;13.764;2022-12-07T09:20:49;7.97;;;3.35;;
74656;SDS011;63185;45.642;13.764;2022-12-07T09:23:15;7.00;;;3.28;;
74656;SDS011;63185;45.642;13.764;2022-12-07T09:25:41;5.13;;;3.20;;
74656;SDS011;63185;45.642;13.764;2022-12-07T09:28:07;5.90;;;3.65;;
74656;SDS011;63185;45.642;13.764;2022-12-07T09:30:33;6.68;;;2.92;;
74656;SDS011;63185;45.642;13.764;2022-12-07T09:33:00;6.68;;;3.38;;
74656;SDS011;63185;45.642;13.764;2022-12-07T09:35:25;7.25;;;3.50;;
74656;SDS011;63185;45.642;13.764;2022-12-07T09:37:51;7.57;;;3.60;;
74656;SDS011;63185;45.642;13.764;2022-12-07T09:40:17;7.90;;;3.50;;
74656;SDS011;63185;45.642;13.764;2022-12-07T09:42:47;8.40;;;3.53;;
74656;SDS011;63185;45.642;13.764;2022-12-07T09:45:27;7.10;;;3.42;;
74656;SDS011;63185;45.642;13.764;2022-12-07T09:48:00;7.38;;;3.30;;
74656;SDS011;63185;45.642;13.764;2022-12-07T09:50:28;9.88;;;3.42;;
74656;SDS011;63185;45.642;13.764;2022-12-07T09:53:00;6.75;;;3.30;;
74656;SDS011;63185;45.642;13.764;2022-12-07T09:55:33;7.05;;;3.85;;
74656;SDS011;63185;45.642;13.764;2022-12-07T09:58:01;5.50;;;3.22;;
74656;SDS011;63185;45.642;13.764;2022-12-07T10:00:26;7.50;;;3.65;;
74656;SDS011;63185;45.642;13.764;2022-12-07T10:03:00;7.07;;;3.53;;
74656;SDS011;63185;45.642;13.764;2022-12-07T10:05:31;8.70;;;4.05;;
74656;SDS011;63185;45.642;13.764;2022-12-07T10:08:03;5.57;;;3.17;;
74656;SDS011;63185;45.642;13.764;2022-12-07T10:10:31;7.25;;;3.35;;
74656;SDS011;63185;45.642;13.764;2022-12-07T10:13:00;10.68;;;3.70;;
74656;SDS011;63185;45.642;13.764;2022-12-07T10:20:49;6.00;;;3.38;;
74656;SDS011;63185;45.642;13.764;2022-12-07T10:23:25;9.15;;;3.42;;
74656;SDS011;63185;45.642;13.764;2022-12-07T10:25:51;5.65;;;3.50;;
74656;SDS011;63185;45.642;13.764;2022-12-07T10:28:20;6.70;;;3.85;;
74656;SDS011;63185;45.642;13.764;2022-12-07T10:35:57;5.35;;;2.97;;
74656;SDS011;63185;45.642;13.764;2022-12-07T10:38:24;7.45;;;3.35;;
74656;SDS011;63185;45.642;13.764;2022-12-07T10:41:12;6.18;;;3.15;;
74656;SDS011;63185;45.642;13.764;2022-12-07T10:43:41;7.82;;;2.90;;
74656;SDS011;63185;45.642;13.764;2022-12-07T10:49:25;5.70;;;3.58;;
74656;SDS011;63185;45.642;13.764;2022-12-07T10:57:32;7.45;;;4.10;;
74656;SDS011;63185;45.642;13.764;2022-12-07T11:00:19;5.70;;;3.58;;
74656;SDS011;63185;45.642;13.764;2022-12-07T11:10:58;3.75;;;2.70;;
74656;SDS011;63185;45.642;13.764;2022-12-07T11:22:03;6.18;;;3.78;;
74656;SDS011;63185;45.642;13.764;2022-12-07T11:35:36;5.03;;;3.13;;
74656;SDS011;63185;45.642;13.764;2022-12-07T11:38:23;6.43;;;3.72;;
74656;SDS011;63185;45.642;13.764;2022-12-07T11:41:10;7.50;;;3.30;;
74656;SDS011;63185;45.642;13.764;2022-12-07T11:54:55;5.40;;;3.05;;
74656;SDS011;63185;45.642;13.764;2022-12-07T11:57:35;7.03;;;3.47;;
74656;SDS011;63185;45.642;13.764;2022-12-07T12:00:12;7.05;;;3.70;;
74656;SDS011;63185;45.642;13.764;2022-12-07T12:05:32;5.82;;;3.50;;
74656;SDS011;63185;45.642;13.764;2022-12-07T12:08:17;6.90;;;3.42;;
74656;SDS011;63185;45.642;13.764;2022-12-07T12:10:57;4.88;;;3.05;;
74656;SDS011;63185;45.642;13.764;2022-12-07T12:19:16;6.15;;;3.60;;
74656;SDS011;63185;45.642;13.764;2022-12-07T12:21:44;6.30;;;3.35;;
74656;SDS011;63185;45.642;13.764;2022-12-07T12:24:17;6.23;;;3.53;;
74656;SDS011;63185;45.642;13.764;2022-12-07T12:26:50;6.18;;;3.63;;
74656;SDS011;63185;45.642;13.764;2022-12-07T12:29:23;5.93;;;3.53;;
74656;SDS011;63185;45.642;13.764;2022-12-07T12:32:19;6.00;;;3.13;;
74656;SDS011;63185;45.642;13.764;2022-12-07T12:37:46;6.82;;;3.40;;
74656;SDS011;63185;45.642;13.764;2022-12-07T12:42:44;4.35;;;2.92;;
74656;SDS011;63185;45.642;13.764;2022-12-07T12:45:23;8.18;;;3.03;;
74656;SDS011;63185;45.642;13.764;2022-12-07T12:48:00;4.68;;;2.47;;
74656;SDS011;63185;45.642;13.764;2022-12-07T12:51:35;4.10;;;2.80;;
74656;SDS011;63185;45.642;13.764;2022-12-07T12:54:04;4.63;;;2.88;;
74656;SDS011;63185;45.642;13.764;2022-12-07T12:57:03;4.43;;;2.80;;
74656;SDS011;63185;45.642;13.764;2022-12-07T12:59:28;6.22;;;2.95;;
74656;SDS011;63185;45.642;13.764;2022-12-07T13:10:21;4.38;;;2.60;;
74656;SDS011;63185;45.642;13.764;2022-12-07T13:20:40;4.95;;;2.85;;
74656;SDS011;63185;45.642;13.764;2022-12-07T13:23:12;4.68;;;2.65;;
74656;SDS011;63185;45.642;13.764;2022-12-07T13:25:45;4.85;;;2.97;;
74656;SDS011;63185;45.642;13.764;2022-12-07T13:28:23;4.00;;;2.17;;
74656;SDS011;63185;45.642;13.764;2022-12-07T13:31:10;5.30;;;2.92;;
74656;SDS011;63185;45.642;13.764;2022-12-07T13:33:44;4.28;;;2.67;;
74656;SDS011;63185;45.642;13.764;2022-12-07T13:36:23;4.45;;;2.42;;
74656;SDS011;63185;45.642;13.764;2022-12-07T13:38:55;5.15;;;2.65;;
74656;SDS011;63185;45.642;13.764;2022-12-07T13:41:24;5.32;;;2.90;;
74656;SDS011;63185;45.642;13.764;2022-12-07T13:44:02;5.93;;;2.97;;
74656;SDS011;63185;45.642;13.764;2022-12-07T13:49:28;6.07;;;2.78;;
74656;SDS011;63185;45.642;13.764;2022-12-07T13:52:08;7.32;;;3.28;;
74656;SDS011;63185;45.642;13.764;2022-12-07T13:54:48;7.72;;;3.20;;
74656;SDS011;63185;45.642;13.764;2022-12-07T13:57:24;4.50;;;2.78;;
74656;SDS011;63185;45.642;13.764;2022-12-07T13:59:52;6.22;;;3.20;;
74656;SDS011;63185;45.642;13.764;2022-12-07T14:02:29;4.45;;;3.00;;
74656;SDS011;63185;45.642;13.764;2022-12-07T14:05:06;6.22;;;3.13;;
74656;SDS011;63185;45.642;13.764;2022-12-07T14:10:34;5.30;;;2.75;;
74656;SDS011;63185;45.642;13.764;2022-12-07T14:13:04;5.22;;;2.75;;
74656;SDS011;63185;45.642;13.764;2022-12-07T14:15:53;6.93;;;2.67;;
74656;SDS011;63185;45.642;13.764;2022-12-07T14:18:30;5.45;;;2.95;;
74656;SDS011;63185;45.642;13.764;2022-12-07T14:21:05;5.72;;;2.70;;
74656;SDS011;63185;45.642;13.764;2022-12-07T14:23:34;7.55;;;2.88;;
74656;SDS011;63185;45.642;13.764;2022-12-07T14:26:13;5.25;;;2.97;;
74656;SDS011;63185;45.642;13.764;2022-12-07T14:28:41;5.35;;;2.40;;
74656;SDS011;63185;45.642;13.764;2022-12-07T14:31:15;4.22;;;2.70;;
74656;SDS011;63185;45.642;13.764;2022-12-07T14:33:43;5.25;;;2.80;;
74656;SDS011;63185;45.642;13.764;2022-12-07T14:36:09;5.40;;;2.80;;
74656;SDS011;63185;45.642;13.764;2022-12-07T14:38:37;4.25;;;2.60;;
74656;SDS011;63185;45.642;13.764;2022-12-07T14:41:03;5.07;;;2.55;;
74656;SDS011;63185;45.642;13.764;2022-12-07T14:43:56;5.45;;;3.08;;
74656;SDS011;63185;45.642;13.764;2022-12-07T14:46:22;4.47;;;2.85;;
74656;SDS011;63185;45.642;13.764;2022-12-07T14:48:48;3.67;;;2.38;;
74656;SDS011;63185;45.642;13.764;2022-12-07T14:51:13;4.15;;;2.58;;
74656;SDS011;63185;45.642;13.764;2022-12-07T14:53:44;4.13;;;2.80;;
74656;SDS011;63185;45.642;13.764;2022-12-07T14:56:13;5.22;;;2.85;;
74656;SDS011;63185;45.642;13.764;2022-12-07T14:58:39;3.53;;;2.42;;
74656;SDS011;63185;45.642;13.764;2022-12-07T15:01:05;4.32;;;2.85;;
74656;SDS011;63185;45.642;13.764;2022-12-07T15:03:31;6.97;;;2.95;;
74656;SDS011;63185;45.642;13.764;2022-12-07T15:05:56;4.63;;;3.03;;
74656;SDS011;63185;45.642;13.764;2022-12-07T15:08:22;4.20;;;2.95;;
74656;SDS011;63185;45.642;13.764;2022-12-07T15:10:48;7.55;;;3.15;;
74656;SDS011;63185;45.642;13.764;2022-12-07T15:13:14;6.22;;;3.63;;
74656;SDS011;63185;45.642;13.764;2022-12-07T15:15:59;5.05;;;3.00;;
74656;SDS011;63185;45.642;13.764;2022-12-07T15:18:25;5.65;;;3.33;;
74656;SDS011;63185;45.642;13.764;2022-12-07T15:20:50;6.38;;;3.50;;
74656;SDS011;63185;45.642;13.764;2022-12-07T15:23:16;5.20;;;3.08;;
74656;SDS011;63185;45.642;13.764;2022-12-07T15:25:43;9.55;;;3.80;;
74656;SDS011;63185;45.642;13.764;2022-12-07T15:28:09;6.07;;;3.30;;
74656;SDS011;63185;45.642;13.764;2022-12-07T15:30:38;8.02;;;3.70;;
74656;SDS011;63185;45.642;13.764;2022-12-07T15:33:05;6.45;;;3.40;;
74656;SDS011;63185;45.642;13.764;2022-12-07T15:35:31;5.63;;;3.20;;
74656;SDS011;63185;45.642;13.764;2022-12-07T15:37:57;8.50;;;3.65;;
74656;SDS011;63185;45.642;13.764;2022-12-07T15:40:22;6.80;;;3.28;;
74656;SDS011;63185;45.642;13.764;2022-12-07T15:42:48;5.05;;;3.40;;
74656;SDS011;63185;45.642;13.764;2022-12-07T15:45:14;7.20;;;3.42;;
74656;SDS011;63185;45.642;13.764;2022-12-07T15:47:40;7.55;;;3.50;;
74656;SDS011;63185;45.642;13.764;2022-12-07T15:50:08;7.30;;;3.42;;
74656;SDS011;63185;45.642;13.764;2022-12-07T15:52:41;6.22;;;3.60;;
74656;SDS011;63185;45.642;13.764;2022-12-07T15:55:07;5.57;;;3.38;;
74656;SDS011;63185;45.642;13.764;2022-12-07T15:57:35;9.35;;;4.03;;
74656;SDS011;63185;45.642;13.764;2022-12-07T16:00:06;5.68;;;3.63;;
74656;SDS011;63185;45.642;13.764;2022-12-07T16:02:33;6.35;;;3.60;;
74656;SDS011;63185;45.642;13.764;2022-12-07T16:05:00;6.07;;;3.58;;
74656;SDS011;63185;45.642;13.764;2022-12-07T16:07:25;6.03;;;3.78;;
74656;SDS011;63185;45.642;13.764;2022-12-07T16:09:51;7.70;;;3.80;;
74656;SDS011;63185;45.642;13.764;2022-12-07T16:12:17;6.07;;;3.70;;
74656;SDS011;63185;45.642;13.764;2022-12-07T16:14:43;8.98;;;3.97;;
74656;SDS011;63185;45.642;13.764;2022-12-07T16:17:09;6.63;;;3.58;;
74656;SDS011;63185;45.642;13.764;2022-12-07T16:19:35;8.68;;;4.20;;
74656;SDS011;63185;45.642;13.764;2022-12-07T16:22:02;7.47;;;3.90;;
74656;SDS011;63185;45.642;13.764;2022-12-07T16:24:29;7.40;;;3.95;;
74656;SDS011;63185;45.642;13.764;2022-12-07T16:26:55;7.90;;;3.80;;
74656;SDS011;63185;45.642;13.764;2022-12-07T16:29:21;8.90;;;4.47;;
74656;SDS011;63185;45.642;13.764;2022-12-07T16:31:47;7.28;;;4.43;;
74656;SDS011;63185;45.642;13.764;2022-12-07T16:34:13;8.30;;;5.10;;
74656;SDS011;63185;45.642;13.764;2022-12-07T16:36:39;9.30;;;4.55;;
74656;SDS011;63185;45.642;13.764;2022-12-07T16:39:05;8.13;;;4.25;;
74656;SDS011;63185;45.642;13.764;2022-12-07T16:41:31;8.18;;;5.00;;
74656;SDS011;63185;45.642;13.764;2022-12-07T16:44:00;8.30;;;4.53;;
74656;SDS011;63185;45.642;13.764;2022-12-07T16:46:35;7.53;;;4.50;;
74656;SDS011;63185;45.642;13.764;2022-12-07T16:49:01;10.07;;;4.70;;
74656;SDS011;63185;45.642;13.764;2022-12-07T16:51:28;7.55;;;4.78;;
74656;SDS011;63185;45.642;13.764;2022-12-07T16:53:53;7.00;;;4.50;;
74656;SDS011;63185;45.642;13.764;2022-12-07T16:56:20;8.57;;;4.82;;
74656;SDS011;63185;45.642;13.764;2022-12-07T16:58:45;7.85;;;4.50;;